createdAt,value
2017-09-08T00:00:18.660Z,12.40
2017-09-08T00:02:46.264Z,12.30
2017-09-08T00:05:13.833Z,12.30
2017-09-08T00:07:41.401Z,12.30
2017-09-08T00:10:09.003Z,12.20
2017-09-08T00:12:37.556Z,12.00
2017-09-08T00:15:05.144Z,12.00
2017-09-08T00:17:32.709Z,12.00
2017-09-08T00:20:00.475Z,11.90
2017-09-08T00:22:28.135Z,11.90
2017-09-08T00:24:55.700Z,11.80
2017-09-08T00:27:23.361Z,11.80
2017-09-08T00:29:51.196Z,11.80
2017-09-08T00:32:18.787Z,11.80
2017-09-08T00:34:47.126Z,11.70
2017-09-08T00:37:14.713Z,11.70
2017-09-08T00:39:42.293Z,11.70
2017-09-08T00:42:09.884Z,11.70
2017-09-08T00:44:37.453Z,11.70
2017-09-08T00:47:05.041Z,11.70
2017-09-08T00:49:32.608Z,11.70
2017-09-08T00:52:00.196Z,11.80
2017-09-08T00:54:27.772Z,11.80
2017-09-08T00:56:56.140Z,11.90
2017-09-08T00:59:23.708Z,11.90
2017-09-08T01:01:52.037Z,12.00
2017-09-08T01:04:20.049Z,12.00
2017-09-08T01:06:47.737Z,12.10
2017-09-08T01:09:15.370Z,12.10
2017-09-08T01:11:42.970Z,12.10
2017-09-08T01:14:10.604Z,12.10
2017-09-08T01:16:40.364Z,12.20
2017-09-08T01:19:09.366Z,12.20
2017-09-08T01:21:37.882Z,12.30
2017-09-08T01:24:06.855Z,12.30
2017-09-08T01:26:36.656Z,12.30
2017-09-08T01:29:04.448Z,12.20
2017-09-08T01:31:32.012Z,12.30
2017-09-08T01:34:00.350Z,12.40
2017-09-08T01:36:27.945Z,12.30
2017-09-08T01:38:55.612Z,12.40
2017-09-08T01:41:23.204Z,12.40
2017-09-08T01:43:51.536Z,12.40
2017-09-08T01:46:19.212Z,12.40
2017-09-08T01:48:47.554Z,12.40
2017-09-08T01:51:15.359Z,12.40
2017-09-08T01:53:42.932Z,12.30
2017-09-08T01:56:11.265Z,12.40
2017-09-08T01:58:38.856Z,12.40
2017-09-08T02:01:06.416Z,12.40
2017-09-08T02:03:35.812Z,12.40
2017-09-08T02:06:03.384Z,12.40
2017-09-08T02:08:30.981Z,12.50
2017-09-08T02:10:58.544Z,12.40
2017-09-08T02:13:26.140Z,12.40
2017-09-08T02:15:53.713Z,12.50
2017-09-08T02:18:21.596Z,12.50
2017-09-08T02:20:49.205Z,12.50
2017-09-08T02:23:16.820Z,12.60
2017-09-08T02:25:44.581Z,12.60
2017-09-08T02:28:12.959Z,12.60
2017-09-08T02:30:40.812Z,12.60
2017-09-08T02:33:08.405Z,12.60
2017-09-08T02:35:37.560Z,12.60
2017-09-08T02:38:05.369Z,12.60
2017-09-08T02:40:34.629Z,12.60
2017-09-08T02:43:02.196Z,12.60
2017-09-08T02:45:29.980Z,12.60
2017-09-08T02:47:57.552Z,12.60
2017-09-08T02:50:25.205Z,12.60
2017-09-08T02:52:52.793Z,12.70
2017-09-08T02:55:21.518Z,12.70
2017-09-08T02:57:49.112Z,12.70
2017-09-08T03:00:17.491Z,12.60
2017-09-08T03:05:24.612Z,12.60
2017-09-08T03:07:52.948Z,12.60
2017-09-08T03:10:20.540Z,12.60
2017-09-08T03:12:48.104Z,12.60
2017-09-08T03:15:15.692Z,12.60
2017-09-08T03:17:43.264Z,12.50
2017-09-08T03:20:10.861Z,12.50
2017-09-08T03:22:38.427Z,12.60
2017-09-08T03:25:06.021Z,12.60
2017-09-08T03:27:35.784Z,12.60
2017-09-08T03:30:03.585Z,12.60
2017-09-08T03:32:31.157Z,12.70
2017-09-08T03:34:59.496Z,12.70
2017-09-08T03:37:27.176Z,12.70
2017-09-08T03:39:54.777Z,12.70
2017-09-08T03:42:22.409Z,12.80
2017-09-08T03:44:50.003Z,12.80
2017-09-08T03:47:17.629Z,12.80
2017-09-08T03:49:45.221Z,12.80
2017-09-08T03:52:12.849Z,12.80
2017-09-08T03:54:40.617Z,12.90
2017-09-08T03:57:08.179Z,12.90
2017-09-08T03:59:36.660Z,12.90
2017-09-08T04:02:04.261Z,12.90
2017-09-08T04:04:31.832Z,12.90
2017-09-08T04:06:59.436Z,13.00
2017-09-08T04:09:27.108Z,13.00
2017-09-08T04:11:54.722Z,13.00
2017-09-08T04:14:22.288Z,13.10
2017-09-08T04:16:49.855Z,13.10
2017-09-08T04:19:17.440Z,13.10
2017-09-08T04:21:45.104Z,13.20
2017-09-08T04:24:12.704Z,13.10
2017-09-08T04:26:40.268Z,13.10
2017-09-08T04:29:07.892Z,13.10
2017-09-08T04:31:37.482Z,13.10
2017-09-08T04:34:05.201Z,13.10
2017-09-08T04:36:32.769Z,13.10
2017-09-08T04:39:00.385Z,13.10
2017-09-08T04:41:27.980Z,13.10
2017-09-08T04:43:55.543Z,13.10
2017-09-08T04:46:23.472Z,13.10
2017-09-08T04:48:51.040Z,13.10
2017-09-08T04:51:18.607Z,13.10
2017-09-08T04:53:46.260Z,13.00
2017-09-08T04:56:13.828Z,13.00
2017-09-08T04:58:42.404Z,13.10
2017-09-08T05:01:10.299Z,13.10
2017-09-08T05:03:38.637Z,13.10
2017-09-08T05:06:06.345Z,13.10
2017-09-08T05:08:35.679Z,13.10
2017-09-08T05:11:03.279Z,13.10
2017-09-08T05:13:31.644Z,13.00
2017-09-08T05:15:59.214Z,13.00
2017-09-08T05:18:26.880Z,13.00
2017-09-08T05:20:54.443Z,13.00
2017-09-08T05:23:22.037Z,13.00
2017-09-08T05:25:49.609Z,13.00
2017-09-08T05:28:17.215Z,13.00
2017-09-08T05:30:44.879Z,13.00
2017-09-08T05:33:12.543Z,13.00
2017-09-08T05:35:40.108Z,13.00
2017-09-08T05:38:08.076Z,13.00
2017-09-08T05:40:37.552Z,13.00
2017-09-08T05:43:05.116Z,13.00
2017-09-08T05:45:32.704Z,13.00
2017-09-08T05:48:00.364Z,13.10
2017-09-08T05:50:27.956Z,13.10
2017-09-08T05:52:56.284Z,13.10
2017-09-08T05:55:23.872Z,13.00
2017-09-08T05:57:51.527Z,13.10
2017-09-08T06:00:19.145Z,13.10
2017-09-08T06:02:46.747Z,13.10
2017-09-08T06:05:14.316Z,13.10
2017-09-08T06:07:42.264Z,13.10
2017-09-08T06:10:09.828Z,13.10
2017-09-08T06:12:37.732Z,13.10
2017-09-08T06:15:06.069Z,13.10
2017-09-08T06:17:35.767Z,13.20
2017-09-08T06:20:03.668Z,13.20
2017-09-08T06:22:31.239Z,13.30
2017-09-08T06:24:59.575Z,13.40
2017-09-08T06:27:27.168Z,13.40
2017-09-08T06:29:54.732Z,13.50
2017-09-08T06:32:22.488Z,13.50
2017-09-08T06:34:50.057Z,13.50
2017-09-08T06:37:17.629Z,13.60
2017-09-08T06:39:46.078Z,13.70
2017-09-08T06:42:13.643Z,13.60
2017-09-08T06:44:41.320Z,13.70
2017-09-08T06:47:08.884Z,13.70
2017-09-08T06:49:37.570Z,13.70
2017-09-08T06:52:05.137Z,13.70
2017-09-08T06:54:34.428Z,13.70
2017-09-08T06:57:02.093Z,13.70
2017-09-08T06:59:29.696Z,13.70
2017-09-08T07:01:57.256Z,13.70
2017-09-08T07:04:24.827Z,13.70
2017-09-08T07:06:52.419Z,13.70
2017-09-08T07:09:19.985Z,13.80
2017-09-08T07:11:47.608Z,13.80
2017-09-08T07:14:15.168Z,13.80
2017-09-08T07:16:42.738Z,13.90
2017-09-08T07:19:10.625Z,13.90
2017-09-08T07:21:38.200Z,13.90
2017-09-08T07:24:07.500Z,14.00
2017-09-08T07:26:37.492Z,14.10
2017-09-08T07:29:05.079Z,14.10
2017-09-08T07:31:32.844Z,14.00
2017-09-08T07:34:00.428Z,14.10
2017-09-08T07:36:29.029Z,14.20
2017-09-08T07:38:56.623Z,14.20
2017-09-08T07:41:24.184Z,14.10
2017-09-08T07:43:52.064Z,14.20
2017-09-08T07:46:19.629Z,14.20
2017-09-08T07:48:47.225Z,14.20
2017-09-08T07:51:15.564Z,14.30
2017-09-08T07:53:43.156Z,14.30
2017-09-08T07:56:11.491Z,14.40
2017-09-08T07:58:39.496Z,14.40
2017-09-08T08:01:07.069Z,14.50
2017-09-08T08:03:35.608Z,14.60
2017-09-08T08:06:03.205Z,14.50
2017-09-08T08:08:30.861Z,14.60
2017-09-08T08:10:59.340Z,14.80
2017-09-08T08:13:27.009Z,14.80
2017-09-08T08:15:54.581Z,15.00
2017-09-08T08:18:23.048Z,15.20
2017-09-08T08:20:50.709Z,15.10
2017-09-08T08:23:18.376Z,15.20
2017-09-08T08:25:45.940Z,15.40
2017-09-08T08:28:13.596Z,15.60
2017-09-08T08:30:41.165Z,15.60
2017-09-08T08:33:08.757Z,15.80
2017-09-08T08:35:36.692Z,15.70
2017-09-08T08:38:04.347Z,15.50
2017-09-08T08:40:31.907Z,15.60
2017-09-08T08:42:59.468Z,15.70
2017-09-08T08:45:27.068Z,15.80
2017-09-08T08:47:54.692Z,15.90
2017-09-08T08:50:22.259Z,16.10
2017-09-08T08:52:49.865Z,16.20
2017-09-08T08:55:17.433Z,16.20
2017-09-08T08:57:44.997Z,16.30
2017-09-08T09:00:12.608Z,16.30
2017-09-08T09:02:40.977Z,16.30
2017-09-08T09:05:08.539Z,16.20
2017-09-08T09:07:37.528Z,16.20
2017-09-08T09:10:05.096Z,16.20
2017-09-08T09:12:32.801Z,16.20
2017-09-08T09:15:00.372Z,16.30
2017-09-08T09:17:27.933Z,16.20
2017-09-08T09:19:55.520Z,16.40
2017-09-08T09:22:23.084Z,16.40
2017-09-08T09:24:50.672Z,16.50
2017-09-08T09:27:18.235Z,16.40
2017-09-08T09:29:45.819Z,16.50
2017-09-08T09:32:13.389Z,16.40
2017-09-08T09:34:40.999Z,16.40
2017-09-08T09:37:08.568Z,16.50
2017-09-08T09:39:37.245Z,16.50
2017-09-08T09:42:05.580Z,16.50
2017-09-08T09:44:34.840Z,16.40
2017-09-08T09:47:02.492Z,16.40
2017-09-08T09:49:30.057Z,16.50
2017-09-08T09:51:57.640Z,16.50
2017-09-08T09:54:25.276Z,16.60
2017-09-08T09:56:53.751Z,16.60
2017-09-08T09:59:21.321Z,16.60
2017-09-08T10:01:49.665Z,16.60
2017-09-08T10:04:17.260Z,16.60
2017-09-08T10:06:45.101Z,16.70
2017-09-08T10:09:12.883Z,16.70
2017-09-08T10:11:41.213Z,16.80
2017-09-08T10:14:08.776Z,16.80
2017-09-08T10:16:36.828Z,16.70
2017-09-08T10:19:04.392Z,16.80
2017-09-08T10:21:32.084Z,16.90
2017-09-08T10:23:59.656Z,17.20
2017-09-08T10:26:27.248Z,17.20
2017-09-08T10:28:55.107Z,17.20
2017-09-08T10:31:22.776Z,17.10
2017-09-08T10:33:50.341Z,17.10
2017-09-08T10:36:18.084Z,17.00
2017-09-08T10:38:45.659Z,17.00
2017-09-08T10:41:13.320Z,16.90
2017-09-08T10:43:40.980Z,16.90
2017-09-08T10:46:09.307Z,16.80
2017-09-08T10:48:36.876Z,16.70
2017-09-08T10:51:04.479Z,16.80
2017-09-08T10:53:32.044Z,16.90
2017-09-08T10:56:00.379Z,16.90
2017-09-08T10:58:27.972Z,16.90
2017-09-08T11:00:55.536Z,17.00
2017-09-08T11:03:23.921Z,16.90
2017-09-08T11:05:51.484Z,16.90
2017-09-08T11:08:20.153Z,17.10
2017-09-08T11:10:47.720Z,17.00
2017-09-08T11:13:15.292Z,17.10
2017-09-08T11:15:42.952Z,17.10
2017-09-08T11:18:10.519Z,17.10
2017-09-08T11:20:38.104Z,17.00
2017-09-08T11:23:06.435Z,16.90
2017-09-08T11:25:36.564Z,16.90
2017-09-08T11:28:04.126Z,16.90
2017-09-08T11:30:31.716Z,16.80
2017-09-08T11:33:05.772Z,16.70
2017-09-08T11:35:41.492Z,16.70
2017-09-08T11:38:09.825Z,16.60
2017-09-08T11:40:37.411Z,16.60
2017-09-08T11:43:05.744Z,16.60
2017-09-08T11:45:34.256Z,16.60
2017-09-08T11:48:02.555Z,16.70
2017-09-08T11:50:31.120Z,16.90
2017-09-08T11:52:58.779Z,16.90
2017-09-08T11:55:26.340Z,17.00
2017-09-08T11:57:53.928Z,17.10
2017-09-08T12:00:22.260Z,17.30
2017-09-08T12:02:50.057Z,17.20
2017-09-08T12:05:17.620Z,17.40
2017-09-08T12:07:45.961Z,17.30
2017-09-08T12:10:13.548Z,17.20
2017-09-08T12:12:41.220Z,17.10
2017-09-08T12:15:09.588Z,17.20
2017-09-08T12:17:37.916Z,17.20
2017-09-08T12:20:05.505Z,17.20
2017-09-08T12:22:33.996Z,17.10
2017-09-08T12:25:01.620Z,17.10
2017-09-08T12:27:29.188Z,17.10
2017-09-08T12:29:56.761Z,17.00
2017-09-08T12:32:24.351Z,17.10
2017-09-08T12:34:51.916Z,17.10
2017-09-08T12:37:19.681Z,17.10
2017-09-08T12:39:47.296Z,17.10
2017-09-08T12:42:14.904Z,17.10
2017-09-08T12:44:42.500Z,17.10
2017-09-08T12:47:10.128Z,17.20
2017-09-08T12:49:37.716Z,17.20
2017-09-08T12:52:05.348Z,17.20
2017-09-08T12:54:32.956Z,17.20
2017-09-08T12:57:00.573Z,17.30
2017-09-08T12:59:28.140Z,17.30
2017-09-08T13:01:55.733Z,17.30
2017-09-08T13:04:23.296Z,17.30
2017-09-08T13:06:50.916Z,17.30
2017-09-08T13:09:18.480Z,17.40
2017-09-08T13:11:46.046Z,17.30
2017-09-08T13:14:13.636Z,17.30
2017-09-08T13:16:41.265Z,17.20
2017-09-08T13:19:09.620Z,17.40
2017-09-08T13:21:37.188Z,17.40
2017-09-08T13:24:04.796Z,17.40
2017-09-08T13:26:32.361Z,17.50
2017-09-08T13:28:59.985Z,17.50
2017-09-08T13:31:27.602Z,17.60
2017-09-08T13:33:55.172Z,17.50
2017-09-08T13:36:22.868Z,17.50
2017-09-08T13:38:50.720Z,17.50
2017-09-08T13:41:18.284Z,17.30
2017-09-08T13:43:45.878Z,17.30
2017-09-08T13:46:13.459Z,17.30
2017-09-08T13:48:41.029Z,17.30
2017-09-08T13:51:08.844Z,17.40
2017-09-08T13:53:37.896Z,17.50
2017-09-08T13:56:05.460Z,17.50
2017-09-08T13:58:34.272Z,17.50
2017-09-08T14:01:01.836Z,17.50
2017-09-08T14:03:29.404Z,17.40
2017-09-08T14:05:57.000Z,17.50
2017-09-08T14:08:25.332Z,17.40
2017-09-08T14:10:52.924Z,17.40
2017-09-08T14:13:21.252Z,17.50
2017-09-08T14:15:49.150Z,17.50
2017-09-08T14:18:16.720Z,17.60
2017-09-08T14:20:44.380Z,17.50
2017-09-08T14:23:12.737Z,17.40
2017-09-08T14:25:40.332Z,17.40
2017-09-08T14:28:07.897Z,17.40
2017-09-08T14:30:36.675Z,17.30
2017-09-08T14:33:04.267Z,17.30
2017-09-08T14:35:31.831Z,17.20
2017-09-08T14:37:59.444Z,17.20
2017-09-08T14:40:27.455Z,17.10
2017-09-08T14:42:55.787Z,17.10
2017-09-08T14:45:23.380Z,17.10
2017-09-08T14:47:51.707Z,17.20
2017-09-08T14:50:19.304Z,17.20
2017-09-08T14:52:46.869Z,17.10
2017-09-08T14:55:14.525Z,17.20
2017-09-08T14:57:42.876Z,17.30
2017-09-08T15:00:10.464Z,17.20
2017-09-08T15:02:38.049Z,17.30
2017-09-08T15:05:06.384Z,17.20
2017-09-08T15:07:35.702Z,17.10
2017-09-08T15:10:03.268Z,17.10
2017-09-08T15:12:31.631Z,16.90
2017-09-08T15:14:59.212Z,16.80
2017-09-08T15:17:26.772Z,16.70
2017-09-08T15:19:54.365Z,16.60
2017-09-08T15:22:21.951Z,16.50
2017-09-08T15:24:49.541Z,16.40
2017-09-08T15:27:17.104Z,16.40
2017-09-08T15:29:44.782Z,16.50
2017-09-08T15:32:12.436Z,16.50
2017-09-08T15:34:41.512Z,16.40
2017-09-08T15:37:09.192Z,16.40
2017-09-08T15:39:36.973Z,16.40
2017-09-08T15:42:05.311Z,16.40
2017-09-08T15:44:32.908Z,16.40
2017-09-08T15:47:01.239Z,16.40
2017-09-08T15:49:29.044Z,16.40
2017-09-08T15:51:56.604Z,16.50
2017-09-08T15:54:24.167Z,16.50
2017-09-08T15:56:51.756Z,16.40
2017-09-08T15:59:19.383Z,16.40
2017-09-08T16:01:47.048Z,16.30
2017-09-08T16:04:14.612Z,16.30
2017-09-08T16:06:42.200Z,16.20
2017-09-08T16:09:10.552Z,16.40
2017-09-08T16:11:38.160Z,16.30
2017-09-08T16:14:05.720Z,16.40
2017-09-08T16:16:35.138Z,16.40
2017-09-08T16:19:02.700Z,16.30
2017-09-08T16:21:30.260Z,16.30
2017-09-08T16:23:57.864Z,16.30
2017-09-08T16:26:25.436Z,16.40
2017-09-08T16:28:53.789Z,16.40
2017-09-08T16:31:21.352Z,16.40
2017-09-08T16:33:48.940Z,16.40
2017-09-08T16:36:17.296Z,16.40
2017-09-08T16:38:44.899Z,16.40
2017-09-08T16:41:12.468Z,16.30
2017-09-08T16:43:40.027Z,16.30
2017-09-08T16:46:07.628Z,16.30
2017-09-08T16:48:36.737Z,16.20
2017-09-08T16:51:04.304Z,16.20
2017-09-08T16:53:32.064Z,16.20
2017-09-08T16:55:59.640Z,16.10
2017-09-08T16:58:28.000Z,15.80
2017-09-08T17:00:55.592Z,15.80
2017-09-08T17:03:23.928Z,15.60
2017-09-08T17:05:51.520Z,15.60
2017-09-08T17:08:19.848Z,15.50
2017-09-08T17:10:47.445Z,15.50
2017-09-08T17:13:15.116Z,15.40
2017-09-08T17:15:43.469Z,15.20
2017-09-08T17:18:11.032Z,15.10
2017-09-08T17:20:38.625Z,15.00
2017-09-08T17:23:06.986Z,14.90
2017-09-08T17:25:36.596Z,14.90
2017-09-08T17:28:04.159Z,14.80
2017-09-08T17:30:31.749Z,14.80
2017-09-08T17:32:59.376Z,14.70
2017-09-08T17:35:26.969Z,14.60
2017-09-08T17:37:54.532Z,14.50
2017-09-08T17:40:22.120Z,14.50
2017-09-08T17:42:49.720Z,14.40
2017-09-08T17:45:17.380Z,14.30
2017-09-08T17:47:45.044Z,14.20
2017-09-08T17:50:12.709Z,14.10
2017-09-08T17:52:40.280Z,14.00
2017-09-08T17:55:08.955Z,14.00
2017-09-08T17:57:37.506Z,14.00
2017-09-08T18:00:05.073Z,13.90
2017-09-08T18:02:32.660Z,13.90
2017-09-08T18:05:00.228Z,13.80
2017-09-08T18:07:27.888Z,13.80
2017-09-08T18:09:55.455Z,13.70
2017-09-08T18:12:23.824Z,13.60
2017-09-08T18:14:51.388Z,13.60
2017-09-08T18:17:19.045Z,13.50
2017-09-08T18:19:46.704Z,13.50
2017-09-08T18:22:14.269Z,13.50
2017-09-08T18:24:41.865Z,13.40
2017-09-08T18:27:09.427Z,13.40
2017-09-08T18:29:37.020Z,13.30
2017-09-08T18:32:04.596Z,13.30
2017-09-08T18:34:32.189Z,13.20
2017-09-08T18:37:00.889Z,13.20
2017-09-08T18:39:29.344Z,13.10
2017-09-08T18:41:56.928Z,13.10
2017-09-08T18:44:25.592Z,13.10
2017-09-08T18:46:53.929Z,13.10
2017-09-08T18:49:21.491Z,13.10
2017-09-08T18:51:49.083Z,13.10
2017-09-08T18:54:16.754Z,13.10
2017-09-08T18:56:44.343Z,13.10
2017-09-08T18:59:12.673Z,13.10
2017-09-08T19:01:40.537Z,13.10
2017-09-08T19:04:08.109Z,13.10
2017-09-08T19:06:37.712Z,13.30
2017-09-08T19:09:05.275Z,13.20
2017-09-08T19:11:33.784Z,13.30
2017-09-08T19:14:02.116Z,13.30
2017-09-08T19:16:29.723Z,13.30
2017-09-08T19:18:58.096Z,13.30
2017-09-08T19:21:26.431Z,13.30
2017-09-08T19:23:54.025Z,13.30
2017-09-08T19:26:21.592Z,13.30
2017-09-08T19:28:49.184Z,13.40
2017-09-08T19:31:16.752Z,13.40
2017-09-08T19:33:44.348Z,13.40
2017-09-08T19:36:11.912Z,13.40
2017-09-08T19:38:39.918Z,13.40
2017-09-08T19:41:07.489Z,13.40
2017-09-08T19:43:37.504Z,13.40
2017-09-08T19:46:05.068Z,13.40
2017-09-08T19:48:32.628Z,13.50
2017-09-08T19:51:01.076Z,13.50
2017-09-08T19:53:28.668Z,13.50
2017-09-08T19:55:57.029Z,13.60
2017-09-08T19:58:24.788Z,13.60
2017-09-08T20:00:52.348Z,13.70
2017-09-08T20:03:19.922Z,13.70
2017-09-08T20:05:48.276Z,13.80
2017-09-08T20:08:16.664Z,13.80
2017-09-08T20:10:44.332Z,13.80
2017-09-08T20:13:11.987Z,13.80
2017-09-08T20:15:39.660Z,13.80
2017-09-08T20:18:07.965Z,13.90
2017-09-08T20:20:36.621Z,13.90
2017-09-08T20:23:04.180Z,13.90
2017-09-08T20:25:31.939Z,13.90
2017-09-08T20:27:59.604Z,13.90
2017-09-08T20:30:27.261Z,13.90
2017-09-08T20:32:54.888Z,14.00
2017-09-08T20:35:22.449Z,14.00
2017-09-08T20:37:50.021Z,14.00
2017-09-08T20:40:17.816Z,14.00
2017-09-08T20:42:45.486Z,14.00
2017-09-08T20:45:13.140Z,14.00
2017-09-08T20:47:40.733Z,14.00
2017-09-08T20:50:09.069Z,14.00
2017-09-08T20:52:36.953Z,14.00
2017-09-08T20:55:04.525Z,14.00
2017-09-08T20:57:33.813Z,14.00
2017-09-08T21:00:01.417Z,14.00
2017-09-08T21:02:28.991Z,14.00
2017-09-08T21:04:56.596Z,14.10
2017-09-08T21:07:24.160Z,14.10
2017-09-08T21:09:52.520Z,14.20
2017-09-08T21:12:20.080Z,14.10
2017-09-08T21:14:47.880Z,14.20
2017-09-08T21:17:16.204Z,14.30
2017-09-08T21:19:43.768Z,14.30
2017-09-08T21:22:11.459Z,14.30
2017-09-08T21:24:39.028Z,14.30
2017-09-08T21:27:07.388Z,14.40
2017-09-08T21:29:36.769Z,14.40
2017-09-08T21:32:04.375Z,14.40
2017-09-08T21:34:32.707Z,14.40
2017-09-08T21:37:00.304Z,14.40
2017-09-08T21:39:27.964Z,14.50
2017-09-08T21:41:55.633Z,14.50
2017-09-08T21:44:23.604Z,14.50
2017-09-08T21:46:51.945Z,14.50
2017-09-08T21:49:19.540Z,14.50
2017-09-08T21:51:47.873Z,14.50
2017-09-08T21:54:15.472Z,14.50
2017-09-08T21:56:43.145Z,14.60
2017-09-08T21:59:10.739Z,14.50
2017-09-08T22:01:38.312Z,14.50
2017-09-08T22:04:05.905Z,14.50
2017-09-08T22:06:35.696Z,14.60
2017-09-08T22:09:03.508Z,14.50
2017-09-08T22:11:31.080Z,14.50
2017-09-08T22:13:59.443Z,14.60
2017-09-08T22:16:27.044Z,14.60
2017-09-08T22:18:54.604Z,14.60
2017-09-08T22:21:22.228Z,14.60
2017-09-08T22:23:49.808Z,14.60
2017-09-08T22:26:17.396Z,14.60
2017-09-08T22:28:44.962Z,14.60
2017-09-08T22:31:12.548Z,14.60
2017-09-08T22:33:40.111Z,14.60
2017-09-08T22:36:07.716Z,14.60
2017-09-08T22:38:37.468Z,14.70
2017-09-08T22:41:05.033Z,14.60
2017-09-08T22:43:32.832Z,14.70
2017-09-08T22:46:00.391Z,14.70
2017-09-08T22:48:28.057Z,14.70
2017-09-08T22:50:56.436Z,14.80
2017-09-08T22:53:24.099Z,14.70
2017-09-08T22:55:52.431Z,14.80
2017-09-08T22:58:20.020Z,14.80
2017-09-08T23:00:47.596Z,14.80
2017-09-08T23:03:15.209Z,14.70
2017-09-08T23:05:42.779Z,14.70
2017-09-08T23:08:10.584Z,14.70
2017-09-08T23:10:38.921Z,14.70
2017-09-08T23:13:06.485Z,14.70
2017-09-08T23:15:35.808Z,14.70
2017-09-08T23:18:03.386Z,14.70
2017-09-08T23:20:30.984Z,14.70
2017-09-08T23:22:58.548Z,14.80
2017-09-08T23:25:26.169Z,14.70
2017-09-08T23:27:54.508Z,14.70
2017-09-08T23:30:22.110Z,14.70
2017-09-08T23:32:49.684Z,14.70
2017-09-08T23:35:18.036Z,14.70
2017-09-08T23:37:45.600Z,14.70
2017-09-08T23:40:13.987Z,14.70
2017-09-08T23:42:41.557Z,14.70
2017-09-08T23:45:09.923Z,14.70
2017-09-08T23:47:37.488Z,14.70
2017-09-08T23:50:05.060Z,14.70
2017-09-08T23:52:32.654Z,14.60
2017-09-08T23:55:00.240Z,14.60
2017-09-08T23:57:27.812Z,14.60
2017-09-08T23:59:55.576Z,14.60
